Time,TemperatureF,DewpointF,PressureIn,WindDirection,WindDirectionDegrees,WindSpeedMPH,WindSpeedGustMPH,Humidity,HourlyPrecipIn,Conditions,Clouds,dailyrainin,SolarRadiationWatts/m^2,SoftwareType,DateUTC
2013-07-23 00:03:00,62.0,45.2,29.80,WNW,293,3.0,5.0,54,0.00,,,0.00,0,WeatherCatV1.20B785,2013-07-23 07:03:00,
2013-07-23 00:08:00,62.0,45.2,29.80,WNW,293,0.0,0.0,54,0.00,,,0.00,0,WeatherCatV1.20B785,2013-07-23 07:08:00,
2013-07-23 00:13:00,62.3,46.4,29.80,WNW,301,3.0,6.0,56,0.00,,,0.00,0,WeatherCatV1.20B785,2013-07-23 07:13:00,
2013-07-23 00:18:00,62.3,47.8,29.76,WNW,301,1.0,4.0,59,0.00,,,0.00,0,WeatherCatV1.20B785,2013-07-23 07:18:00,
2013-07-23 00:23:00,61.8,45.0,29.76,WNW,293,4.0,6.0,54,0.00,,,0.00,0,WeatherCatV1.20B785,2013-07-23 07:23:00,
2013-07-23 00:28:00,61.8,44.0,29.76,NW,305,6.0,6.0,52,0.00,,,0.00,0,WeatherCatV1.20B785,2013-07-23 07:28:00,
2013-07-23 00:33:00,62.1,41.6,29.77,West,259,7.0,11.0,47,0.00,,,0.00,0,WeatherCatV1.20B785,2013-07-23 07:33:00,
2013-07-23 00:38:00,62.9,41.8,29.77,West,269,7.0,8.0,46,0.00,,,0.00,0,WeatherCatV1.20B785,2013-07-23 07:38:00,
2013-07-23 00:43:00,63.5,41.2,29.77,West,272,7.0,9.0,44,0.00,,,0.00,0,WeatherCatV1.20B785,2013-07-23 07:43:00,
2013-07-23 00:48:00,63.9,43.3,29.76,WNW,283,5.0,11.0,47,0.00,,,0.00,0,WeatherCatV1.20B785,2013-07-23 07:48:00,
2013-07-23 00:53:00,63.7,43.6,29.76,WNW,293,4.0,7.0,48,0.00,,,0.00,0,WeatherCatV1.20B785,2013-07-23 07:53:00,
2013-07-23 00:58:00,63.4,43.4,29.76,WNW,299,6.0,9.0,48,0.00,,,0.00,0,WeatherCatV1.20B785,2013-07-23 07:58:00,
2013-07-23 01:03:00,63.1,43.1,29.77,WNW,283,6.0,11.0,48,0.00,,,0.00,0,WeatherCatV1.20B785,2013-07-23 08:03:00,
2013-07-23 01:08:00,63.1,43.6,29.77,WNW,283,3.0,10.0,49,0.00,,,0.00,0,WeatherCatV1.20B785,2013-07-23 08:08:00,
2013-07-23 01:13:00,62.9,44.0,29.77,WNW,283,5.0,9.0,50,0.00,,,0.00,0,WeatherCatV1.20B785,2013-07-23 08:13:00,
2013-07-23 01:18:00,62.9,44.0,29.74,West,278,9.0,11.0,50,0.00,,,0.00,0,WeatherCatV1.20B785,2013-07-23 08:18:00,
2013-07-23 01:23:00,62.9,44.5,29.74,WNW,298,7.0,8.0,51,0.00,,,0.00,0,WeatherCatV1.20B785,2013-07-23 08:23:00,
2013-07-23 01:28:00,62.7,43.8,29.74,West,274,6.0,9.0,50,0.00,,,0.00,0,WeatherCatV1.20B785,2013-07-23 08:28:00,
2013-07-23 01:33:00,62.7,44.3,29.74,WNW,283,4.0,7.0,51,0.00,,,0.00,0,WeatherCatV1.20B785,2013-07-23 08:33:00,
2013-07-23 01:38:00,62.6,44.2,29.74,NW,305,6.0,9.0,51,0.00,,,0.00,0,WeatherCatV1.20B785,2013-07-23 08:38:00,
2013-07-23 01:43:00,62.4,44.0,29.74,West,278,3.0,6.0,51,0.00,,,0.00,0,WeatherCatV1.20B785,2013-07-23 08:43:00,
2013-07-23 01:48:00,62.4,43.5,29.75,West,271,3.0,6.0,50,0.00,,,0.00,0,WeatherCatV1.20B785,2013-07-23 08:48:00,
2013-07-23 01:53:00,62.4,44.0,29.75,NW,310,5.0,7.0,51,0.00,,,0.00,0,WeatherCatV1.20B785,2013-07-23 08:53:00,
2013-07-23 01:58:00,62.4,43.0,29.75,West,267,2.0,6.0,49,0.00,,,0.00,0,WeatherCatV1.20B785,2013-07-23 08:58:00,
2013-07-23 02:03:00,62.6,42.6,29.76,West,264,5.0,7.0,48,0.00,,,0.00,0,WeatherCatV1.20B785,2013-07-23 09:03:00,
2013-07-23 02:08:00,62.9,42.9,29.76,WNW,297,5.0,6.0,48,0.00,,,0.00,0,WeatherCatV1.20B785,2013-07-23 09:08:00,
2013-07-23 02:13:00,62.9,42.9,29.76,WNW,293,7.0,7.0,48,0.00,,,0.00,0,WeatherCatV1.20B785,2013-07-23 09:13:00,
2013-07-23 02:18:00,62.9,43.4,29.76,WNW,300,6.0,9.0,49,0.00,,,0.00,0,WeatherCatV1.20B785,2013-07-23 09:18:00,
2013-07-23 02:23:00,62.7,44.3,29.76,WNW,293,7.0,10.0,51,0.00,,,0.00,0,WeatherCatV1.20B785,2013-07-23 09:23:00,
2013-07-23 02:28:00,62.4,45.0,29.76,WNW,303,4.0,9.0,53,0.00,,,0.00,0,WeatherCatV1.20B785,2013-07-23 09:28:00,
2013-07-23 02:33:00,62.0,45.2,29.74,WNW,293,10.0,12.0,54,0.00,,,0.00,0,WeatherCatV1.20B785,2013-07-23 09:33:00,
2013-07-23 02:38:00,61.5,45.2,29.74,WNW,283,7.0,7.0,55,0.00,,,0.00,0,WeatherCatV1.20B785,2013-07-23 09:38:00,
2013-07-23 02:43:00,61.3,45.5,29.74,WNW,293,7.0,12.0,56,0.00,,,0.00,0,WeatherCatV1.20B785,2013-07-23 09:43:00,
2013-07-23 02:48:00,61.2,45.4,29.75,NNW,330,5.0,12.0,56,0.00,,,0.00,0,WeatherCatV1.20B785,2013-07-23 09:48:00,
2013-07-23 02:53:00,61.0,45.7,29.75,NW,307,9.0,12.0,57,0.00,,,0.00,0,WeatherCatV1.20B785,2013-07-23 09:53:00,
2013-07-23 02:58:00,60.9,46.0,29.75,NW,310,4.0,11.0,58,0.00,,,0.00,0,WeatherCatV1.20B785,2013-07-23 09:58:00,
2013-07-23 03:03:00,60.7,45.8,29.75,NW,306,10.0,11.0,58,0.00,,,0.00,0,WeatherCatV1.20B785,2013-07-23 10:03:00,
2013-07-23 03:08:00,60.5,45.7,29.75,WNW,288,6.0,10.0,58,0.00,,,0.00,0,WeatherCatV1.20B785,2013-07-23 10:08:00,
2013-07-23 03:13:00,60.5,46.1,29.75,WNW,293,6.0,11.0,59,0.00,,,0.00,0,WeatherCatV1.20B785,2013-07-23 10:13:00,
2013-07-23 03:18:00,60.4,45.5,29.75,WNW,293,5.0,7.0,58,0.00,,,0.00,0,WeatherCatV1.20B785,2013-07-23 10:18:00,
2013-07-23 03:23:00,60.4,45.5,29.75,WNW,300,6.0,7.0,58,0.00,,,0.00,0,WeatherCatV1.20B785,2013-07-23 10:23:00,
2013-07-23 03:28:00,60.5,45.2,29.75,WNW,293,5.0,6.0,57,0.00,,,0.00,0,WeatherCatV1.20B785,2013-07-23 10:28:00,
2013-07-23 03:33:00,60.5,45.7,29.76,WNW,293,2.0,4.0,58,0.00,,,0.00,0,WeatherCatV1.20B785,2013-07-23 10:33:00,
2013-07-23 03:38:00,60.5,45.7,29.76,West,278,4.0,6.0,58,0.00,,,0.00,0,WeatherCatV1.20B785,2013-07-23 10:38:00,
2013-07-23 03:43:00,60.5,45.7,29.76,WNW,288,4.0,6.0,58,0.00,,,0.00,0,WeatherCatV1.20B785,2013-07-23 10:43:00,
2013-07-23 03:48:00,60.5,45.2,29.75,WNW,293,5.0,5.0,57,0.00,,,0.00,0,WeatherCatV1.20B785,2013-07-23 10:48:00,
2013-07-23 03:53:00,60.5,44.2,29.75,WNW,293,2.0,5.0,55,0.00,,,0.00,0,WeatherCatV1.20B785,2013-07-23 10:53:00,
2013-07-23 03:58:00,60.5,43.8,29.75,WNW,288,5.0,7.0,54,0.00,,,0.00,0,WeatherCatV1.20B785,2013-07-23 10:58:00,
2013-07-23 04:03:00,60.7,44.9,29.75,WNW,283,4.0,7.0,56,0.00,,,0.00,0,WeatherCatV1.20B785,2013-07-23 11:03:00,
2013-07-23 04:08:00,60.9,44.1,29.75,WNW,288,5.0,7.0,54,0.00,,,0.00,0,WeatherCatV1.20B785,2013-07-23 11:08:00,
2013-07-23 04:13:00,61.0,44.7,29.75,WNW,288,5.0,7.0,55,0.00,,,0.00,0,WeatherCatV1.20B785,2013-07-23 11:13:00,
2013-07-23 04:18:00,61.0,44.7,29.77,WNW,293,4.0,6.0,55,0.00,,,0.00,0,WeatherCatV1.20B785,2013-07-23 11:18:00,
2013-07-23 04:23:00,60.9,44.6,29.77,WNW,300,4.0,6.0,55,0.00,,,0.00,0,WeatherCatV1.20B785,2013-07-23 11:23:00,
2013-07-23 04:28:00,60.9,44.6,29.77,WNW,303,5.0,7.0,55,0.00,,,0.00,0,WeatherCatV1.20B785,2013-07-23 11:28:00,
2013-07-23 04:33:00,60.7,44.9,29.77,WNW,293,5.0,9.0,56,0.00,,,0.00,0,WeatherCatV1.20B785,2013-07-23 11:33:00,
2013-07-23 04:38:00,60.5,45.2,29.77,NW,309,4.0,6.0,57,0.00,,,0.00,0,WeatherCatV1.20B785,2013-07-23 11:38:00,
2013-07-23 04:43:00,60.2,44.9,29.77,NW,315,4.0,7.0,57,0.00,,,0.00,0,WeatherCatV1.20B785,2013-07-23 11:43:00,
2013-07-23 04:48:00,60.1,44.8,29.77,WNW,293,6.0,7.0,57,0.00,,,0.00,0,WeatherCatV1.20B785,2013-07-23 11:48:00,
2013-07-23 04:53:00,59.9,44.6,29.77,WNW,297,3.0,5.0,57,0.00,,,0.00,0,WeatherCatV1.20B785,2013-07-23 11:53:00,
2013-07-23 04:58:00,59.9,44.6,29.77,WNW,302,3.0,5.0,57,0.00,,,0.00,0,WeatherCatV1.20B785,2013-07-23 11:58:00,
2013-07-23 05:03:00,59.8,44.1,29.78,NW,304,4.0,5.0,56,0.00,,,0.00,0,WeatherCatV1.20B785,2013-07-23 12:03:00,
2013-07-23 05:08:00,59.9,43.7,29.78,NW,304,4.0,5.0,55,0.00,,,0.00,0,WeatherCatV1.20B785,2013-07-23 12:08:00,
2013-07-23 05:13:00,59.9,43.7,29.78,NW,312,0.0,0.0,55,0.00,,,0.00,0,WeatherCatV1.20B785,2013-07-23 12:13:00,
2013-07-23 05:18:00,59.9,43.2,29.82,NW,312,1.0,3.0,54,0.00,,,0.00,0,WeatherCatV1.20B785,2013-07-23 12:18:00,
2013-07-23 05:23:00,60.1,42.9,29.82,NW,314,4.0,5.0,53,0.00,,,0.00,0,WeatherCatV1.20B785,2013-07-23 12:23:00,
2013-07-23 05:28:00,60.1,41.9,29.82,WNW,303,5.0,7.0,51,0.00,,,0.00,0,WeatherCatV1.20B785,2013-07-23 12:28:00,
2013-07-23 05:33:00,60.4,41.7,29.81,NW,307,4.0,7.0,50,0.00,,,0.00,0,WeatherCatV1.20B785,2013-07-23 12:33:00,
2013-07-23 05:38:00,60.7,41.4,29.81,NW,308,5.0,5.0,49,0.00,,,0.00,0,WeatherCatV1.20B785,2013-07-23 12:38:00,
2013-07-23 05:43:00,61.0,41.2,29.81,NW,309,1.0,5.0,48,0.00,,,0.00,0,WeatherCatV1.20B785,2013-07-23 12:43:00,
2013-07-23 05:48:00,61.3,41.4,29.79,NNW,333,2.0,3.0,48,0.00,,,0.00,0,WeatherCatV1.20B785,2013-07-23 12:48:00,
2013-07-23 05:53:00,61.5,40.5,29.79,NNW,334,0.0,3.0,46,0.00,,,0.00,0,WeatherCatV1.20B785,2013-07-23 12:53:00,
2013-07-23 05:58:00,61.6,40.0,29.79,NNW,336,0.0,0.0,45,0.00,,,0.00,0,WeatherCatV1.20B785,2013-07-23 12:58:00,
2013-07-23 06:03:00,61.6,40.0,29.81,NNW,336,0.0,0.0,45,0.00,,,0.00,7,WeatherCatV1.20B785,2013-07-23 13:03:00,
2013-07-23 06:08:00,61.5,39.4,29.81,NNW,336,0.0,0.0,44,0.00,,,0.00,11,WeatherCatV1.20B785,2013-07-23 13:08:00,
2013-07-23 06:13:00,61.5,39.4,29.81,NNW,335,0.0,1.0,44,0.00,,,0.00,14,WeatherCatV1.20B785,2013-07-23 13:13:00,
2013-07-23 06:18:00,61.5,39.4,29.83,NNW,334,0.0,4.0,44,0.00,,,0.00,19,WeatherCatV1.20B785,2013-07-23 13:18:00,
2013-07-23 06:23:00,61.6,40.0,29.83,NW,316,4.0,4.0,45,0.00,,,0.00,23,WeatherCatV1.20B785,2013-07-23 13:23:00,
2013-07-23 06:28:00,61.8,40.2,29.83,WNW,293,3.0,5.0,45,0.00,,,0.00,26,WeatherCatV1.20B785,2013-07-23 13:28:00,
2013-07-23 06:33:00,61.8,40.8,29.83,WNW,293,6.0,6.0,46,0.00,,,0.00,32,WeatherCatV1.20B785,2013-07-23 13:33:00,
2013-07-23 06:38:00,61.6,41.7,29.83,WNW,288,5.0,6.0,48,0.00,,,0.00,37,WeatherCatV1.20B785,2013-07-23 13:38:00,
2013-07-23 06:43:00,61.5,41.6,29.83,WNW,293,4.0,5.0,48,0.00,,,0.00,40,WeatherCatV1.20B785,2013-07-23 13:43:00,
2013-07-23 06:48:00,61.3,42.0,29.82,WNW,301,5.0,7.0,49,0.00,,,0.00,40,WeatherCatV1.20B785,2013-07-23 13:48:00,
2013-07-23 06:53:00,61.2,42.4,29.82,WNW,293,8.0,10.0,50,0.00,,,0.00,44,WeatherCatV1.20B785,2013-07-23 13:53:00,
2013-07-23 06:58:00,61.2,42.9,29.82,WNW,301,5.0,7.0,51,0.00,,,0.00,58,WeatherCatV1.20B785,2013-07-23 13:58:00,
2013-07-23 07:03:00,61.2,42.9,29.84,WNW,303,5.0,7.0,51,0.00,,,0.00,83,WeatherCatV1.20B785,2013-07-23 14:03:00,
2013-07-23 07:08:00,61.3,42.5,29.84,WNW,299,4.0,7.0,50,0.00,,,0.00,100,WeatherCatV1.20B785,2013-07-23 14:08:00,
2013-07-23 07:13:00,61.5,42.2,29.84,WNW,293,7.0,10.0,49,0.00,,,0.00,132,WeatherCatV1.20B785,2013-07-23 14:13:00,
2013-07-23 07:18:00,61.6,42.8,29.84,NW,307,7.0,9.0,50,0.00,,,0.00,139,WeatherCatV1.20B785,2013-07-23 14:18:00,
2013-07-23 07:23:00,61.6,43.3,29.84,WNW,283,4.0,9.0,51,0.00,,,0.00,151,WeatherCatV1.20B785,2013-07-23 14:23:00,
2013-07-23 07:28:00,61.6,43.8,29.84,WNW,288,5.0,7.0,52,0.00,,,0.00,149,WeatherCatV1.20B785,2013-07-23 14:28:00,
2013-07-23 07:33:00,61.5,44.2,29.83,WNW,283,4.0,7.0,53,0.00,,,0.00,149,WeatherCatV1.20B785,2013-07-23 14:33:00,
2013-07-23 07:38:00,61.3,43.5,29.83,WNW,283,3.0,6.0,52,0.00,,,0.00,153,WeatherCatV1.20B785,2013-07-23 14:38:00,
2013-07-23 07:43:00,61.3,44.0,29.83,WNW,297,4.0,6.0,53,0.00,,,0.00,172,WeatherCatV1.20B785,2013-07-23 14:43:00,
2013-07-23 07:48:00,61.3,44.5,29.85,WNW,297,6.0,6.0,54,0.00,,,0.00,190,WeatherCatV1.20B785,2013-07-23 14:48:00,
2013-07-23 07:53:00,61.3,44.0,29.85,WNW,283,5.0,5.0,53,0.00,,,0.00,192,WeatherCatV1.20B785,2013-07-23 14:53:00,
2013-07-23 07:58:00,61.3,43.5,29.85,WNW,293,5.0,6.0,52,0.00,,,0.00,209,WeatherCatV1.20B785,2013-07-23 14:58:00,
2013-07-23 08:03:00,61.5,43.7,29.86,WNW,298,6.0,7.0,52,0.00,,,0.00,209,WeatherCatV1.20B785,2013-07-23 15:03:00,
2013-07-23 08:08:00,61.6,44.8,29.86,WNW,293,5.0,5.0,54,0.00,,,0.00,213,WeatherCatV1.20B785,2013-07-23 15:08:00,
2013-07-23 08:13:00,61.8,45.0,29.86,WNW,288,4.0,5.0,54,0.00,,,0.00,230,WeatherCatV1.20B785,2013-07-23 15:13:00,
2013-07-23 08:18:00,62.0,45.2,29.85,WNW,293,7.0,7.0,54,0.00,,,0.00,272,WeatherCatV1.20B785,2013-07-23 15:18:00,
2013-07-23 08:23:00,62.1,44.8,29.85,WNW,283,6.0,7.0,53,0.00,,,0.00,295,WeatherCatV1.20B785,2013-07-23 15:23:00,
2013-07-23 08:28:00,62.3,45.0,29.85,West,279,4.0,6.0,53,0.00,,,0.00,267,WeatherCatV1.20B785,2013-07-23 15:28:00,
2013-07-23 08:33:00,62.4,45.0,29.86,West,266,4.0,6.0,53,0.00,,,0.00,274,WeatherCatV1.20B785,2013-07-23 15:33:00,
2013-07-23 08:38:00,62.6,45.7,29.86,WNW,288,6.0,6.0,54,0.00,,,0.00,229,WeatherCatV1.20B785,2013-07-23 15:38:00,
2013-07-23 08:43:00,62.6,46.2,29.86,West,279,5.0,8.0,55,0.00,,,0.00,218,WeatherCatV1.20B785,2013-07-23 15:43:00,
2013-07-23 08:48:00,62.6,46.2,29.85,WNW,293,4.0,9.0,55,0.00,,,0.00,206,WeatherCatV1.20B785,2013-07-23 15:48:00,
2013-07-23 08:53:00,62.4,47.0,29.85,NW,309,6.0,7.0,57,0.00,,,0.00,197,WeatherCatV1.20B785,2013-07-23 15:53:00,
2013-07-23 08:58:00,62.3,45.9,29.85,WNW,299,4.0,7.0,55,0.00,,,0.00,165,WeatherCatV1.20B785,2013-07-23 15:58:00,
2013-07-23 09:03:00,62.3,46.9,29.86,WNW,293,3.0,5.0,57,0.00,,,0.00,178,WeatherCatV1.20B785,2013-07-23 16:03:00,
2013-07-23 09:08:00,62.3,46.9,29.86,WNW,293,5.0,6.0,57,0.00,,,0.00,192,WeatherCatV1.20B785,2013-07-23 16:08:00,
2013-07-23 09:13:00,62.3,46.9,29.86,WNW,297,4.0,6.0,57,0.00,,,0.00,216,WeatherCatV1.20B785,2013-07-23 16:13:00,
2013-07-23 09:18:00,62.3,45.9,29.88,WNW,300,5.0,7.0,55,0.00,,,0.00,237,WeatherCatV1.20B785,2013-07-23 16:18:00,
2013-07-23 09:23:00,62.3,45.9,29.88,NW,313,5.0,9.0,55,0.00,,,0.00,221,WeatherCatV1.20B785,2013-07-23 16:23:00,
2013-07-23 09:28:00,62.4,46.0,29.88,WNW,288,5.0,7.0,55,0.00,,,0.00,195,WeatherCatV1.20B785,2013-07-23 16:28:00,
2013-07-23 09:33:00,62.6,46.2,29.88,WNW,293,5.0,7.0,55,0.00,,,0.00,179,WeatherCatV1.20B785,2013-07-23 16:33:00,
2013-07-23 09:38:00,62.7,47.2,29.88,West,277,5.0,5.0,57,0.00,,,0.00,176,WeatherCatV1.20B785,2013-07-23 16:38:00,
2013-07-23 09:43:00,62.7,47.2,29.88,WNW,293,5.0,5.0,57,0.00,,,0.00,179,WeatherCatV1.20B785,2013-07-23 16:43:00,
2013-07-23 09:48:00,62.7,47.2,29.88,WNW,293,4.0,5.0,57,0.00,,,0.00,183,WeatherCatV1.20B785,2013-07-23 16:48:00,
2013-07-23 09:53:00,62.7,47.7,29.88,WNW,301,5.0,6.0,58,0.00,,,0.00,176,WeatherCatV1.20B785,2013-07-23 16:53:00,
2013-07-23 09:58:00,62.7,46.8,29.88,WNW,293,3.0,5.0,56,0.00,,,0.00,169,WeatherCatV1.20B785,2013-07-23 16:58:00,
2013-07-23 10:03:00,62.7,47.7,29.88,WNW,293,1.0,4.0,58,0.00,,,0.00,174,WeatherCatV1.20B785,2013-07-23 17:03:00,
2013-07-23 10:08:00,62.7,47.2,29.88,WNW,293,3.0,4.0,57,0.00,,,0.00,171,WeatherCatV1.20B785,2013-07-23 17:08:00,
2013-07-23 10:13:00,62.7,47.7,29.88,WNW,298,0.0,4.0,58,0.00,,,0.00,165,WeatherCatV1.20B785,2013-07-23 17:13:00,
2013-07-23 10:18:00,62.7,47.2,29.91,WNW,293,2.0,5.0,57,0.00,,,0.00,163,WeatherCatV1.20B785,2013-07-23 17:18:00,
2013-07-23 10:23:00,62.7,46.8,29.91,WNW,293,3.0,5.0,56,0.00,,,0.00,165,WeatherCatV1.20B785,2013-07-23 17:23:00,
2013-07-23 10:28:00,62.9,47.0,29.91,WNW,288,0.0,4.0,56,0.00,,,0.00,165,WeatherCatV1.20B785,2013-07-23 17:28:00,
2013-07-23 10:33:00,62.9,47.0,29.91,WNW,288,0.0,1.0,56,0.00,,,0.00,160,WeatherCatV1.20B785,2013-07-23 17:33:00,
2013-07-23 10:38:00,63.1,47.6,29.91,WNW,288,0.0,0.0,57,0.00,,,0.00,158,WeatherCatV1.20B785,2013-07-23 17:38:00,
2013-07-23 10:43:00,63.2,47.7,29.91,WNW,288,2.0,3.0,57,0.00,,,0.00,156,WeatherCatV1.20B785,2013-07-23 17:43:00,
2013-07-23 10:48:00,63.2,47.7,29.92,WNW,288,0.0,0.0,57,0.00,,,0.00,160,WeatherCatV1.20B785,2013-07-23 17:48:00,
2013-07-23 10:53:00,63.4,47.9,29.92,WNW,288,2.0,2.0,57,0.00,,,0.00,163,WeatherCatV1.20B785,2013-07-23 17:53:00,
2013-07-23 10:58:00,63.4,47.4,29.92,WNW,288,0.0,0.0,56,0.00,,,0.00,171,WeatherCatV1.20B785,2013-07-23 17:58:00,
2013-07-23 11:04:00,63.5,47.5,29.92,WNW,288,0.0,1.0,56,0.00,,,0.00,178,WeatherCatV1.20B785,2013-07-23 18:04:00,
2013-07-23 11:09:00,63.7,47.7,29.92,WNW,288,2.0,3.0,56,0.00,,,0.00,190,WeatherCatV1.20B785,2013-07-23 18:09:00,
2013-07-23 11:15:00,63.7,47.2,29.89,WNW,288,0.0,1.0,55,0.00,,,0.00,216,WeatherCatV1.20B785,2013-07-23 18:15:00,
2013-07-23 11:20:00,63.9,47.9,29.89,WNW,288,2.0,3.0,56,0.00,,,0.00,246,WeatherCatV1.20B785,2013-07-23 18:20:00,
2013-07-23 11:25:00,64.0,48.0,29.89,WNW,288,0.0,3.0,56,0.00,,,0.00,269,WeatherCatV1.20B785,2013-07-23 18:25:00,
2013-07-23 11:30:00,64.2,48.2,29.89,WNW,288,0.0,4.0,56,0.00,,,0.00,290,WeatherCatV1.20B785,2013-07-23 18:30:00,
2013-07-23 11:37:00,64.5,48.0,29.89,West,279,5.0,7.0,55,0.00,,,0.00,357,WeatherCatV1.20B785,2013-07-23 18:37:00,
2013-07-23 11:42:00,64.7,48.6,29.89,NW,305,6.0,7.0,56,0.00,,,0.00,427,WeatherCatV1.20B785,2013-07-23 18:42:00,
2013-07-23 11:47:00,64.8,48.7,29.88,WNW,283,5.0,7.0,56,0.00,,,0.00,471,WeatherCatV1.20B785,2013-07-23 18:47:00,
2013-07-23 11:52:00,65.2,48.1,29.88,West,268,6.0,9.0,54,0.00,,,0.00,434,WeatherCatV1.20B785,2013-07-23 18:52:00,
2013-07-23 11:57:00,65.3,48.7,29.88,WNW,293,4.0,7.0,55,0.00,,,0.00,418,WeatherCatV1.20B785,2013-07-23 18:57:00,
2013-07-23 12:02:00,65.3,47.2,29.88,WNW,283,7.0,7.0,52,0.00,,,0.00,424,WeatherCatV1.20B785,2013-07-23 19:02:00,
2013-07-23 12:07:00,65.6,48.0,29.88,West,259,3.0,3.0,53,0.00,,,0.00,443,WeatherCatV1.20B785,2013-07-23 19:07:00,
2013-07-23 12:12:00,65.8,47.2,29.88,WNW,301,6.0,10.0,51,0.00,,,0.00,455,WeatherCatV1.20B785,2013-07-23 19:12:00,
2013-07-23 12:17:00,65.8,45.6,29.87,WNW,293,6.0,7.0,48,0.00,,,0.00,485,WeatherCatV1.20B785,2013-07-23 19:17:00,
2013-07-23 12:22:00,66.0,45.7,29.87,WNW,293,6.0,10.0,48,0.00,,,0.00,520,WeatherCatV1.20B785,2013-07-23 19:22:00,
2013-07-23 12:28:00,66.1,45.3,29.87,West,278,7.0,9.0,47,0.00,,,0.00,598,WeatherCatV1.20B785,2013-07-23 19:28:00,
2013-07-23 12:33:00,66.3,46.0,29.87,West,273,4.0,11.0,48,0.00,,,0.00,573,WeatherCatV1.20B785,2013-07-23 19:33:00,
2013-07-23 12:39:00,66.6,46.3,29.87,WSW,250,10.0,10.0,48,0.00,,,0.00,490,WeatherCatV1.20B785,2013-07-23 19:39:00,
2013-07-23 12:44:00,66.8,47.0,29.86,NW,317,7.0,9.0,49,0.00,,,0.00,436,WeatherCatV1.20B785,2013-07-23 19:44:00,
2013-07-23 12:49:00,66.8,45.9,29.86,WNW,293,7.0,7.0,47,0.00,,,0.00,424,WeatherCatV1.20B785,2013-07-23 19:49:00,
2013-07-23 12:54:00,66.8,43.0,29.86,WNW,299,9.0,9.0,42,0.00,,,0.00,399,WeatherCatV1.20B785,2013-07-23 19:54:00,
2013-07-23 12:59:00,66.8,44.8,29.85,WNW,283,2.0,7.0,45,0.00,,,0.00,411,WeatherCatV1.20B785,2013-07-23 19:59:00,
2013-07-23 13:04:00,66.9,46.6,29.85,West,270,4.0,5.0,48,0.00,,,0.00,411,WeatherCatV1.20B785,2013-07-23 20:04:00,
2013-07-23 13:09:00,66.9,44.3,29.85,NW,305,4.0,7.0,44,0.00,,,0.00,418,WeatherCatV1.20B785,2013-07-23 20:09:00,
2013-07-23 13:15:00,67.1,44.5,29.86,WNW,293,7.0,10.0,44,0.00,,,0.00,485,WeatherCatV1.20B785,2013-07-23 20:15:00,
2013-07-23 13:20:00,67.1,44.5,29.86,WNW,283,7.0,11.0,44,0.00,,,0.00,610,WeatherCatV1.20B785,2013-07-23 20:20:00,
2013-07-23 13:25:00,67.1,44.5,29.86,WNW,283,6.0,11.0,44,0.00,,,0.00,601,WeatherCatV1.20B785,2013-07-23 20:25:00,
2013-07-23 13:30:00,67.3,42.8,29.86,WSW,257,8.0,10.0,41,0.00,,,0.00,687,WeatherCatV1.20B785,2013-07-23 20:30:00,
2013-07-23 13:36:00,67.8,42.6,29.86,West,263,11.0,12.0,40,0.00,,,0.00,758,WeatherCatV1.20B785,2013-07-23 20:36:00,
2013-07-23 13:41:00,67.9,40.7,29.86,WNW,293,12.0,15.0,37,0.00,,,0.00,613,WeatherCatV1.20B785,2013-07-23 20:41:00,
2013-07-23 13:46:00,68.1,40.8,29.87,WNW,293,9.0,10.0,37,0.00,,,0.00,946,WeatherCatV1.20B785,2013-07-23 20:46:00,
2013-07-23 13:52:00,68.6,39.8,29.87,WNW,283,0.0,11.0,35,0.00,,,0.00,643,WeatherCatV1.20B785,2013-07-23 20:52:00,
2013-07-23 13:57:00,69.4,39.8,29.87,NW,304,10.0,12.0,34,0.00,,,0.00,898,WeatherCatV1.20B785,2013-07-23 20:57:00,
2013-07-23 14:02:00,69.6,40.0,29.85,NW,313,4.0,6.0,34,0.00,,,0.00,793,WeatherCatV1.20B785,2013-07-23 21:02:00,
2013-07-23 14:07:00,70.3,39.8,29.85,WNW,283,0.0,10.0,33,0.00,,,0.00,828,WeatherCatV1.20B785,2013-07-23 21:07:00,
2013-07-23 14:14:00,71.1,40.5,29.85,West,262,6.0,9.0,33,0.00,,,0.00,809,WeatherCatV1.20B785,2013-07-23 21:14:00,
2013-07-23 14:19:00,70.9,39.6,29.85,WNW,297,9.0,12.0,32,0.00,,,0.00,835,WeatherCatV1.20B785,2013-07-23 21:19:00,
2013-07-23 14:25:00,70.4,39.9,29.85,NW,308,7.0,9.0,33,0.00,,,0.00,592,WeatherCatV1.20B785,2013-07-23 21:25:00,
2013-07-23 14:30:00,70.3,39.8,29.86,WNW,288,7.0,7.0,33,0.00,,,0.00,543,WeatherCatV1.20B785,2013-07-23 21:30:00,
2013-07-23 14:35:00,70.4,37.5,29.86,WNW,300,6.0,11.0,30,0.00,,,0.00,765,WeatherCatV1.20B785,2013-07-23 21:35:00,
2013-07-23 14:40:00,71.1,39.7,29.86,North,1,0.0,5.0,32,0.00,,,0.00,1016,WeatherCatV1.20B785,2013-07-23 21:40:00,
2013-07-23 14:45:00,72.1,40.6,29.84,South,188,3.0,9.0,32,0.00,,,0.00,907,WeatherCatV1.20B785,2013-07-23 21:45:00,
2013-07-23 14:51:00,73.3,39.1,29.84,West,279,4.0,8.0,29,0.00,,,0.00,752,WeatherCatV1.20B785,2013-07-23 21:51:00,
2013-07-23 14:56:00,73.0,39.7,29.84,WNW,293,5.0,11.0,30,0.00,,,0.00,726,WeatherCatV1.20B785,2013-07-23 21:56:00,
2013-07-23 15:01:00,72.5,40.1,29.82,West,260,4.0,9.0,31,0.00,,,0.00,622,WeatherCatV1.20B785,2013-07-23 22:01:00,
2013-07-23 15:06:00,72.0,39.7,29.82,WNW,303,7.0,7.0,31,0.00,,,0.00,575,WeatherCatV1.20B785,2013-07-23 22:06:00,
2013-07-23 15:11:00,72.0,39.7,29.82,West,275,9.0,13.0,31,0.00,,,0.00,548,WeatherCatV1.20B785,2013-07-23 22:11:00,
2013-07-23 15:16:00,71.8,40.3,29.83,WNW,293,5.0,9.0,32,0.00,,,0.00,555,WeatherCatV1.20B785,2013-07-23 22:16:00,
2013-07-23 15:22:00,71.6,41.7,29.83,WNW,299,5.0,12.0,34,0.00,,,0.00,362,WeatherCatV1.20B785,2013-07-23 22:22:00,
2013-07-23 15:27:00,71.1,39.7,29.83,WNW,293,7.0,10.0,32,0.00,,,0.00,301,WeatherCatV1.20B785,2013-07-23 22:27:00,
2013-07-23 15:32:00,70.6,40.9,29.83,WNW,288,9.0,10.0,34,0.00,,,0.00,329,WeatherCatV1.20B785,2013-07-23 22:32:00,
2013-07-23 15:37:00,70.3,41.3,29.83,WNW,293,4.0,6.0,35,0.00,,,0.00,471,WeatherCatV1.20B785,2013-07-23 22:37:00,
2013-07-23 15:42:00,70.3,42.1,29.83,WNW,300,7.0,7.0,36,0.00,,,0.00,485,WeatherCatV1.20B785,2013-07-23 22:42:00,
2013-07-23 15:47:00,70.3,42.8,29.84,WNW,283,5.0,6.0,37,0.00,,,0.00,775,WeatherCatV1.20B785,2013-07-23 22:47:00,
2013-07-23 15:52:00,70.4,42.9,29.84,West,276,6.0,7.0,37,0.00,,,0.00,1076,WeatherCatV1.20B785,2013-07-23 22:52:00,
2013-07-23 15:57:00,70.9,43.3,29.84,West,276,4.0,10.0,37,0.00,,,0.00,485,WeatherCatV1.20B785,2013-07-23 22:57:00,
2013-07-23 16:02:00,71.6,43.2,29.83,NW,304,2.0,3.0,36,0.00,,,0.00,533,WeatherCatV1.20B785,2013-07-23 23:02:00,
2013-07-23 16:07:00,72.3,43.1,29.83,West,272,11.0,14.0,35,0.00,,,0.00,817,WeatherCatV1.20B785,2013-07-23 23:07:00,
2013-07-23 16:12:00,72.3,43.1,29.83,NW,306,6.0,14.0,35,0.00,,,0.00,1030,WeatherCatV1.20B785,2013-07-23 23:12:00,
2013-07-23 16:17:00,71.3,42.2,29.83,WNW,288,11.0,19.0,35,0.00,,,0.00,575,WeatherCatV1.20B785,2013-07-23 23:17:00,
2013-07-23 16:22:00,70.8,42.5,29.83,West,276,11.0,15.0,36,0.00,,,0.00,348,WeatherCatV1.20B785,2013-07-23 23:22:00,
2013-07-23 16:27:00,70.1,42.6,29.83,WNW,293,13.0,17.0,37,0.00,,,0.00,330,WeatherCatV1.20B785,2013-07-23 23:27:00,
2013-07-23 16:32:00,69.6,43.5,29.84,NW,314,8.0,12.0,39,0.00,,,0.00,316,WeatherCatV1.20B785,2013-07-23 23:32:00,
2013-07-23 16:37:00,69.4,44.0,29.84,West,273,5.0,14.0,40,0.00,,,0.00,281,WeatherCatV1.20B785,2013-07-23 23:37:00,
2013-07-23 16:42:00,69.3,43.9,29.84,NW,322,12.0,19.0,40,0.00,,,0.00,308,WeatherCatV1.20B785,2013-07-23 23:42:00,
2013-07-23 16:47:00,68.8,44.8,29.85,WNW,303,11.0,16.0,42,0.00,,,0.00,362,WeatherCatV1.20B785,2013-07-23 23:47:00,
2013-07-23 16:52:00,68.8,46.0,29.85,West,276,7.0,14.0,44,0.00,,,0.00,591,WeatherCatV1.20B785,2013-07-23 23:52:00,
2013-07-23 16:57:00,68.8,46.0,29.85,WNW,283,9.0,14.0,44,0.00,,,0.00,828,WeatherCatV1.20B785,2013-07-23 23:57:00,
2013-07-23 17:02:00,69.4,45.3,29.84,NNW,348,9.0,14.0,42,0.00,,,0.00,742,WeatherCatV1.20B785,2013-07-24 00:02:00,
2013-07-23 17:09:00,70.6,45.7,29.84,WNW,301,12.0,12.0,41,0.00,,,0.00,789,WeatherCatV1.20B785,2013-07-24 00:09:00,
2013-07-23 17:14:00,70.6,45.7,29.81,NW,309,9.0,15.0,41,0.00,,,0.00,782,WeatherCatV1.20B785,2013-07-24 00:14:00,
2013-07-23 17:19:00,70.4,45.6,29.81,WNW,299,7.0,15.0,41,0.00,,,0.00,722,WeatherCatV1.20B785,2013-07-24 00:19:00,
2013-07-23 17:24:00,70.3,46.7,29.81,West,262,9.0,13.0,43,0.00,,,0.00,645,WeatherCatV1.20B785,2013-07-24 00:24:00,
2013-07-23 17:29:00,70.3,46.1,29.81,NW,318,10.0,15.0,42,0.00,,,0.00,605,WeatherCatV1.20B785,2013-07-24 00:29:00,
2013-07-23 17:34:00,69.9,46.4,29.81,WNW,301,12.0,15.0,43,0.00,,,0.00,585,WeatherCatV1.20B785,2013-07-24 00:34:00,
2013-07-23 17:40:00,69.4,46.5,29.81,WNW,283,8.0,17.0,44,0.00,,,0.00,548,WeatherCatV1.20B785,2013-07-24 00:40:00,
2013-07-23 17:45:00,69.8,46.9,29.81,WNW,301,9.0,14.0,44,0.00,,,0.00,536,WeatherCatV1.20B785,2013-07-24 00:45:00,
2013-07-23 17:50:00,69.4,45.3,29.81,WNW,288,4.0,15.0,42,0.00,,,0.00,327,WeatherCatV1.20B785,2013-07-24 00:50:00,
2013-07-23 17:55:00,69.3,47.0,29.81,West,262,4.0,10.0,45,0.00,,,0.00,462,WeatherCatV1.20B785,2013-07-24 00:55:00,
2013-07-23 18:00:00,69.3,45.8,29.82,NW,311,11.0,11.0,43,0.00,,,0.00,258,WeatherCatV1.20B785,2013-07-24 01:00:00,
2013-07-23 18:05:00,68.8,46.6,29.82,West,266,12.0,12.0,45,0.00,,,0.00,171,WeatherCatV1.20B785,2013-07-24 01:05:00,
2013-07-23 18:11:00,68.1,45.3,29.82,WNW,301,7.0,10.0,44,0.00,,,0.00,195,WeatherCatV1.20B785,2013-07-24 01:11:00,
2013-07-23 18:16:00,67.8,45.1,29.84,NW,305,6.0,8.0,44,0.00,,,0.00,178,WeatherCatV1.20B785,2013-07-24 01:16:00,
2013-07-23 18:23:00,67.3,44.6,29.84,NW,304,7.0,13.0,44,0.00,,,0.00,155,WeatherCatV1.20B785,2013-07-24 01:23:00,
2013-07-23 18:28:00,66.9,44.9,29.84,West,267,5.0,9.0,45,0.00,,,0.00,141,WeatherCatV1.20B785,2013-07-24 01:28:00,
2013-07-23 18:33:00,66.8,45.3,29.84,WNW,288,7.0,11.0,46,0.00,,,0.00,139,WeatherCatV1.20B785,2013-07-24 01:33:00,
2013-07-23 18:38:00,66.6,44.6,29.84,NW,306,8.0,12.0,45,0.00,,,0.00,146,WeatherCatV1.20B785,2013-07-24 01:38:00,
2013-07-23 18:44:00,66.4,43.8,29.86,WNW,283,5.0,12.0,44,0.00,,,0.00,135,WeatherCatV1.20B785,2013-07-24 01:44:00,
2013-07-23 18:49:00,66.4,45.0,29.86,WNW,293,12.0,12.0,46,0.00,,,0.00,213,WeatherCatV1.20B785,2013-07-24 01:49:00,
2013-07-23 18:54:00,66.6,45.2,29.86,WNW,293,8.0,10.0,46,0.00,,,0.00,272,WeatherCatV1.20B785,2013-07-24 01:54:00,
2013-07-23 18:59:00,67.3,45.8,29.84,WNW,293,5.0,9.0,46,0.00,,,0.00,258,WeatherCatV1.20B785,2013-07-24 01:59:00,
2013-07-23 19:04:00,67.6,45.5,29.84,WNW,283,11.0,11.0,45,0.00,,,0.00,246,WeatherCatV1.20B785,2013-07-24 02:04:00,
2013-07-23 19:09:00,67.8,45.1,29.84,WNW,299,6.0,12.0,44,0.00,,,0.00,174,WeatherCatV1.20B785,2013-07-24 02:09:00,
2013-07-23 19:18:00,67.4,44.7,29.83,West,272,9.0,13.0,44,0.00,,,0.00,95,WeatherCatV1.20B785,2013-07-24 02:18:00,
2013-07-23 19:23:00,67.1,44.5,29.83,WNW,293,6.0,11.0,44,0.00,,,0.00,72,WeatherCatV1.20B785,2013-07-24 02:23:00,
2013-07-23 19:29:00,66.6,44.6,29.85,West,273,7.0,12.0,45,0.00,,,0.00,76,WeatherCatV1.20B785,2013-07-24 02:29:00,
2013-07-23 19:34:00,66.3,44.3,29.85,WNW,288,9.0,12.0,45,0.00,,,0.00,74,WeatherCatV1.20B785,2013-07-24 02:34:00,
2013-07-23 19:39:00,66.0,44.6,29.85,NW,311,8.0,9.0,46,0.00,,,0.00,72,WeatherCatV1.20B785,2013-07-24 02:39:00,
2013-07-23 19:44:00,65.8,44.4,29.85,WNW,288,5.0,10.0,46,0.00,,,0.00,91,WeatherCatV1.20B785,2013-07-24 02:44:00,
2013-07-23 19:49:00,65.6,43.7,29.85,WNW,283,6.0,13.0,45,0.00,,,0.00,46,WeatherCatV1.20B785,2013-07-24 02:49:00,
2013-07-23 19:54:00,65.5,44.2,29.85,WNW,297,6.0,12.0,46,0.00,,,0.00,37,WeatherCatV1.20B785,2013-07-24 02:54:00,
2013-07-23 20:00:00,65.3,44.0,29.87,WNW,293,5.0,11.0,46,0.00,,,0.00,30,WeatherCatV1.20B785,2013-07-24 03:00:00,
2013-07-23 20:05:00,65.0,44.3,29.87,WNW,293,5.0,10.0,47,0.00,,,0.00,25,WeatherCatV1.20B785,2013-07-24 03:05:00,
2013-07-23 20:10:00,64.7,44.0,29.87,WNW,288,4.0,10.0,47,0.00,,,0.00,18,WeatherCatV1.20B785,2013-07-24 03:10:00,
2013-07-23 20:15:00,64.5,44.4,29.87,NW,310,1.0,10.0,48,0.00,,,0.00,9,WeatherCatV1.20B785,2013-07-24 03:15:00,
2013-07-23 20:20:00,64.2,44.6,29.87,West,270,2.0,6.0,49,0.00,,,0.00,0,WeatherCatV1.20B785,2013-07-24 03:20:00,
2013-07-23 20:25:00,63.9,44.4,29.87,WNW,288,10.0,10.0,49,0.00,,,0.00,0,WeatherCatV1.20B785,2013-07-24 03:25:00,
2013-07-23 20:30:00,63.5,44.5,29.88,West,279,9.0,9.0,50,0.00,,,0.00,0,WeatherCatV1.20B785,2013-07-24 03:30:00,
2013-07-23 20:35:00,63.2,44.8,29.88,NW,306,8.0,10.0,51,0.00,,,0.00,0,WeatherCatV1.20B785,2013-07-24 03:35:00,
2013-07-23 20:40:00,62.9,44.5,29.88,WNW,293,9.0,12.0,51,0.00,,,0.00,0,WeatherCatV1.20B785,2013-07-24 03:40:00,
2013-07-23 20:45:00,62.7,44.8,29.89,WNW,293,6.0,11.0,52,0.00,,,0.00,0,WeatherCatV1.20B785,2013-07-24 03:45:00,
2013-07-23 20:51:00,62.6,44.7,29.89,WNW,297,6.0,10.0,52,0.00,,,0.00,0,WeatherCatV1.20B785,2013-07-24 03:51:00,
2013-07-23 20:56:00,62.4,45.0,29.89,West,278,5.0,6.0,53,0.00,,,0.00,0,WeatherCatV1.20B785,2013-07-24 03:56:00,
2013-07-23 21:01:00,62.1,44.8,29.89,WNW,301,4.0,8.0,53,0.00,,,0.00,0,WeatherCatV1.20B785,2013-07-24 04:01:00,
2013-07-23 21:02:00,62.1,45.2,29.89,WNW,301,5.0,6.0,54,0.00,,,0.00,0,WeatherCatV1.20B785,2013-07-24 04:02:00,
2013-07-23 21:04:00,62.1,45.2,29.89,WNW,293,4.0,6.0,54,0.00,,,0.00,0,WeatherCatV1.20B785,2013-07-24 04:04:00,
2013-07-23 21:09:00,61.8,45.0,29.89,WNW,293,3.0,5.0,54,0.00,,,0.00,0,WeatherCatV1.20B785,2013-07-24 04:09:00,
2013-07-23 21:12:00,61.8,45.5,29.89,WNW,293,5.0,6.0,55,0.00,,,0.00,0,WeatherCatV1.20B785,2013-07-24 04:12:00,
2013-07-23 21:13:00,61.6,45.3,29.89,WNW,293,6.0,7.0,55,0.00,,,0.00,0,WeatherCatV1.20B785,2013-07-24 04:13:00,
2013-07-23 21:18:00,61.5,45.2,29.89,WNW,297,6.0,7.0,55,0.00,,,0.00,0,WeatherCatV1.20B785,2013-07-24 04:18:00,
2013-07-23 21:23:00,61.3,45.0,29.89,WNW,301,4.0,6.0,55,0.00,,,0.00,0,WeatherCatV1.20B785,2013-07-24 04:23:00,
2013-07-23 21:28:00,61.3,45.0,29.89,WNW,300,3.0,4.0,55,0.00,,,0.00,0,WeatherCatV1.20B785,2013-07-24 04:28:00,
2013-07-23 21:33:00,61.3,45.0,29.89,WNW,298,2.0,4.0,55,0.00,,,0.00,0,WeatherCatV1.20B785,2013-07-24 04:33:00,
2013-07-23 21:38:00,61.2,44.9,29.89,WNW,293,0.0,3.0,55,0.00,,,0.00,0,WeatherCatV1.20B785,2013-07-24 04:38:00,
2013-07-23 21:43:00,61.2,44.9,29.89,WNW,293,0.0,0.0,55,0.00,,,0.00,0,WeatherCatV1.20B785,2013-07-24 04:43:00,
2013-07-23 21:48:00,61.0,44.2,29.89,WNW,293,0.0,0.0,54,0.00,,,0.00,0,WeatherCatV1.20B785,2013-07-24 04:48:00,
2013-07-23 21:53:00,60.9,43.7,29.89,WNW,293,0.0,1.0,53,0.00,,,0.00,0,WeatherCatV1.20B785,2013-07-24 04:53:00,
2013-07-23 21:58:00,60.9,43.7,29.89,WNW,293,0.0,2.0,53,0.00,,,0.00,0,WeatherCatV1.20B785,2013-07-24 04:58:00,
2013-07-23 22:03:00,60.9,43.2,29.91,WNW,293,0.0,3.0,52,0.00,,,0.00,0,WeatherCatV1.20B785,2013-07-24 05:03:00,
2013-07-23 22:08:00,60.9,43.7,29.91,WNW,293,0.0,0.0,53,0.00,,,0.00,0,WeatherCatV1.20B785,2013-07-24 05:08:00,
2013-07-23 22:13:00,60.9,43.2,29.91,WNW,293,0.0,3.0,52,0.00,,,0.00,0,WeatherCatV1.20B785,2013-07-24 05:13:00,
2013-07-23 22:18:00,60.7,43.0,29.91,WNW,293,0.0,3.0,52,0.00,,,0.00,0,WeatherCatV1.20B785,2013-07-24 05:18:00,
2013-07-23 22:23:00,60.5,43.3,29.91,SW,234,2.0,4.0,53,0.00,,,0.00,0,WeatherCatV1.20B785,2013-07-24 05:23:00,
2013-07-23 22:28:00,60.4,42.7,29.91,SW,234,0.0,0.0,52,0.00,,,0.00,0,WeatherCatV1.20B785,2013-07-24 05:28:00,
2013-07-23 22:33:00,60.4,43.2,29.90,SW,234,0.0,4.0,53,0.00,,,0.00,0,WeatherCatV1.20B785,2013-07-24 05:33:00,
2013-07-23 22:38:00,60.5,43.3,29.90,SW,234,2.0,3.0,53,0.00,,,0.00,0,WeatherCatV1.20B785,2013-07-24 05:38:00,
2013-07-23 22:43:00,60.5,43.3,29.90,SW,215,4.0,5.0,53,0.00,,,0.00,0,WeatherCatV1.20B785,2013-07-24 05:43:00,
2013-07-23 22:48:00,60.5,43.3,29.90,SW,215,0.0,0.0,53,0.00,,,0.00,0,WeatherCatV1.20B785,2013-07-24 05:48:00,
2013-07-23 22:53:00,60.5,42.8,29.90,SW,216,1.0,3.0,52,0.00,,,0.00,0,WeatherCatV1.20B785,2013-07-24 05:53:00,
2013-07-23 22:58:00,60.5,42.8,29.90,SW,216,2.0,2.0,52,0.00,,,0.00,0,WeatherCatV1.20B785,2013-07-24 05:58:00,
2013-07-23 23:03:00,60.7,43.0,29.90,SW,216,0.0,0.0,52,0.00,,,0.00,0,WeatherCatV1.20B785,2013-07-24 06:03:00,
2013-07-23 23:08:00,60.7,43.0,29.90,SW,216,0.0,0.0,52,0.00,,,0.00,0,WeatherCatV1.20B785,2013-07-24 06:08:00,
2013-07-23 23:13:00,60.5,42.8,29.90,SW,216,0.0,0.0,52,0.00,,,0.00,0,WeatherCatV1.20B785,2013-07-24 06:13:00,
2013-07-23 23:18:00,60.5,42.8,29.89,SW,216,0.0,0.0,52,0.00,,,0.00,0,WeatherCatV1.20B785,2013-07-24 06:18:00,
2013-07-23 23:23:00,60.4,42.7,29.89,SW,216,0.0,0.0,52,0.00,,,0.00,0,WeatherCatV1.20B785,2013-07-24 06:23:00,
2013-07-23 23:28:00,60.2,42.5,29.89,SW,216,0.0,2.0,52,0.00,,,0.00,0,WeatherCatV1.20B785,2013-07-24 06:28:00,
2013-07-23 23:33:00,60.2,42.5,29.90,SW,215,0.0,4.0,52,0.00,,,0.00,0,WeatherCatV1.20B785,2013-07-24 06:33:00,
2013-07-23 23:38:00,60.2,43.0,29.90,SW,215,0.0,0.0,53,0.00,,,0.00,0,WeatherCatV1.20B785,2013-07-24 06:38:00,
2013-07-23 23:43:00,60.1,42.9,29.90,SW,215,0.0,0.0,53,0.00,,,0.00,0,WeatherCatV1.20B785,2013-07-24 06:43:00,
2013-07-23 23:48:00,60.1,42.9,29.90,SW,216,0.0,0.0,53,0.00,,,0.00,0,WeatherCatV1.20B785,2013-07-24 06:48:00,
2013-07-23 23:53:00,60.1,42.9,29.90,SW,216,0.0,0.0,53,0.00,,,0.00,0,WeatherCatV1.20B785,2013-07-24 06:53:00,
2013-07-23 23:58:00,60.1,42.9,29.90,SW,216,0.0,0.0,53,0.00,,,0.00,0,WeatherCatV1.20B785,2013-07-24 06:58:00,